Startpagina
METAR-TAF:

METAR-TAF

Vliegvelden :

Montevideo, Uruguay

breedte: 34-47S, lengte: 056-15W, hoogte: 53 m

Actueel weer

Dit bericht is 1 uur en het 59 minuten geleden gemaakt, om 22:00 UTC
Wind 10 kt uit het oostzuidoosten
Temperatuur 25°C
Vochtigheid 50%
Druk 1014 hPa
Zicht 10 km of meer
Weinig wolken op 2600 ft
Verspreide wolken op 20000 ft

METAR: SUAA 232200Z 12010KT 9999 FEW026 SCT200 25/14 Q1014

Tijdstip: 20:59 (23:59 UTC)

Verwachting

Dit bericht is 44 minuten geleden gemaakt, om 23:15 UTC
Verwachting geldig van 24 om 00 UTC tot 24 om 24 UTC
Wind 10 kt uit het oostzuidoosten
Zicht 10 km of meer
geen wolken onder 1500 m en geen cumulonimbus
Wijzigt naar
van 24 om 02 UTC tot 24 om 04 UTC
Wind 10 kt uit het noordnoordoosten

TAF: SUAA 232315Z 2400/2424 12010KT CAVOK TX30/2418Z TN17/2410Z BECMG 2402/2404 02010KT

Waarnemingen en weersverwachtingen van meer dan 4000 vliegvelden (METAR en TAF).

De beschikbare stations zijn de gele en rode punten op de kaart.

Ga met uw muis naar het station om de naam te zien.

Klik dan om waarnemingen en weersverwachtingen te zien.

kaart wijzigen: klik op de groene knoppen met een zwart kruis om in te zoomen, op de groene knop met een streepje om uit te zoomen of op de groene pijlen voor aangrenzende kaarten.


METAR-TAF: